Time;durP1;ratioP1;P1;durP2;ratioP2;P2;SDS_P1;SDS_P2;PMS_P1;PMS_P2;Temp;Humidity;BMP_temperature;BMP_pressure;BME280_temperature;BME280_humidity;BME280_pressure;Samples;Min_cycle;Max_cycle;Signal;HPM_P1;HPM_P2
2022/05/02 00:00:20;;;;;;;;;;;8.00;99.90;;;;;;5055275;28;19931;-83
2022/05/02 00:02:47;;;;;;;;;;;8.00;99.90;;;;;;5070293;28;19932;-82
2022/05/02 00:05:15;;;;;;;;;;;8.00;99.90;;;;;;5056612;28;19982;-83
2022/05/02 00:07:43;;;;;;;;;;;7.90;99.90;;;;;;5051330;28;20024;-82
2022/05/02 00:10:12;;;;;;;;;;;8.00;99.90;;;;;;5070922;28;19955;-82
2022/05/02 00:12:39;;;;;;;;;;;7.90;99.90;;;;;;5054072;28;20373;-83
2022/05/02 00:15:07;;;;;;;;;;;7.90;99.90;;;;;;5057720;28;19975;-83
2022/05/02 00:20:19;;;;;;;;;;;7.50;99.90;;;;;;5073599;28;19920;-82
2022/05/02 00:22:46;;;;;;;;;;;7.80;99.90;;;;;;5059675;28;20407;-82
2022/05/02 00:25:15;;;;;;;;;;;7.80;99.90;;;;;;5060966;28;19944;-82
2022/05/02 00:27:43;;;;;;;;;;;7.80;99.90;;;;;;5059707;28;19932;-81
2022/05/02 00:30:11;;;;;;;;;;;8.30;99.90;;;;;;5080281;28;20420;-83
2022/05/02 00:32:39;;;;;;;;;;;7.80;99.90;;;;;;5063383;28;19944;-82
2022/05/02 00:35:07;;;;;;;;;;;7.80;99.90;;;;;;5064907;28;20304;-82
2022/05/02 00:37:34;;;;;;;;;;;7.70;99.90;;;;;;5064556;28;19932;-82
2022/05/02 00:40:00;;;;;;;;;;;7.80;99.90;;;;;;5063575;28;19942;-81
2022/05/02 00:42:29;;;;;;;;;;;7.70;99.90;;;;;;5064885;28;19979;-81
2022/05/02 00:44:56;;;;;;;;;;;7.60;99.90;;;;;;5064483;28;19924;-81
2022/05/02 00:47:23;;;;;;;;;;;7.60;99.90;;;;;;5064687;28;20281;-81
2022/05/02 00:49:50;;;;;;;;;;;7.60;99.90;;;;;;5079673;28;19924;-81
2022/05/02 00:52:18;;;;;;;;;;;7.50;99.90;;;;;;5077059;28;19928;-80
2022/05/02 00:54:45;;;;;;;;;;;7.50;99.90;;;;;;5075170;28;19936;-81
2022/05/02 00:57:12;;;;;;;;;;;7.40;99.90;;;;;;5061617;28;20012;-80
2022/05/02 00:59:41;;;;;;;;;;;7.40;99.90;;;;;;5063568;28;19921;-82
2022/05/02 01:02:09;;;;;;;;;;;7.40;99.90;;;;;;5059288;28;19925;-81
2022/05/02 01:04:36;;;;;;;;;;;7.30;99.90;;;;;;5060011;28;19908;-81
2022/05/02 01:07:09;;;;;;;;;;;7.30;99.90;;;;;;5061916;28;19924;-81
2022/05/02 01:09:38;;;;;;;;;;;7.70;99.90;;;;;;5062113;28;19925;-80
2022/05/02 01:12:24;;;;;;;;;;;7.30;99.90;;;;;;5083059;28;19951;-80
2022/05/02 01:14:55;;;;;;;;;;;7.20;99.90;;;;;;5065123;28;19909;-80
2022/05/02 01:17:22;;;;;;;;;;;7.10;99.90;;;;;;5074696;28;19915;-81
2022/05/02 01:19:50;;;;;;;;;;;7.10;99.90;;;;;;5057169;28;19921;-80
2022/05/02 01:22:18;;;;;;;;;;;7.10;99.90;;;;;;5057903;28;19967;-82
2022/05/02 01:24:46;;;;;;;;;;;7.10;99.90;;;;;;5049075;28;19925;-81
2022/05/02 01:27:13;;;;;;;;;;;7.10;99.90;;;;;;5056731;28;20542;-82
2022/05/02 01:29:42;;;;;;;;;;;7.10;99.90;;;;;;5073275;28;19929;-81
2022/05/02 01:32:10;;;;;;;;;;;7.10;99.90;;;;;;5075151;28;19931;-81
2022/05/02 01:34:40;;;;;;;;;;;7.10;99.90;;;;;;5072873;28;19920;-81
2022/05/02 01:37:07;;;;;;;;;;;7.10;99.90;;;;;;5072729;28;19939;-82
2022/05/02 01:39:35;;;;;;;;;;;7.10;99.90;;;;;;5072106;28;19929;-82
2022/05/02 01:42:02;;;;;;;;;;;7.00;99.90;;;;;;5056397;28;19967;-82
2022/05/02 01:44:29;;;;;;;;;;;7.00;99.90;;;;;;5054562;28;19936;-82
2022/05/02 01:46:56;;;;;;;;;;;7.00;99.90;;;;;;5057329;28;19921;-82
2022/05/02 01:49:23;;;;;;;;;;;7.00;99.90;;;;;;5071931;28;20367;-82
2022/05/02 01:51:50;;;;;;;;;;;7.10;99.90;;;;;;5057111;28;20379;-82
2022/05/02 01:54:17;;;;;;;;;;;7.00;99.90;;;;;;5056438;28;20015;-82
2022/05/02 01:56:46;;;;;;;;;;;7.00;99.90;;;;;;5073429;28;19931;-82
2022/05/02 01:59:13;;;;;;;;;;;7.00;99.90;;;;;;5076495;28;19920;-82
2022/05/02 02:01:40;;;;;;;;;;;7.00;99.90;;;;;;5079561;28;19924;-82
2022/05/02 02:06:51;;;;;;;;;;;7.00;99.90;;;;;;5057729;28;19916;-82
2022/05/02 02:09:19;;;;;;;;;;;7.10;99.90;;;;;;5076528;28;19931;-82
2022/05/02 02:11:47;;;;;;;;;;;7.10;99.90;;;;;;5060115;28;19920;-84
2022/05/02 02:14:14;;;;;;;;;;;7.20;99.90;;;;;;5057748;28;19931;-81
2022/05/02 02:16:42;;;;;;;;;;;7.30;99.90;;;;;;5058017;28;20040;-82
2022/05/02 02:19:09;;;;;;;;;;;7.30;99.90;;;;;;5060600;28;19927;-81
2022/05/02 02:21:37;;;;;;;;;;;8.80;99.90;;;;;;5060418;28;19951;-82
2022/05/02 02:24:04;;;;;;;;;;;;;;;;;;5058906;28;20020;-82
2022/05/02 02:26:31;;;;;;;;;;;7.30;99.90;;;;;;5061664;28;19944;-81
2022/05/02 02:29:00;;;;;;;;;;;7.30;99.90;;;;;;5061199;28;19927;-82
2022/05/02 02:31:28;;;;;;;;;;;7.30;99.90;;;;;;5060526;28;20255;-81
2022/05/02 02:33:54;;;;;;;;;;;7.30;99.90;;;;;;5059147;28;19960;-80
2022/05/02 02:36:21;;;;;;;;;;;7.30;99.90;;;;;;5057362;28;20042;-81
2022/05/02 02:38:48;;;;;;;;;;;7.30;99.90;;;;;;5057579;28;19947;-81
2022/05/02 02:41:15;;;;;;;;;;;7.30;99.90;;;;;;5056872;28;19925;-81
2022/05/02 02:43:42;;;;;;;;;;;7.30;99.90;;;;;;5057043;28;19932;-81
2022/05/02 02:46:10;;;;;;;;;;;7.30;99.90;;;;;;5074442;28;19943;-81
2022/05/02 02:48:37;;;;;;;;;;;7.30;99.90;;;;;;5060529;28;19920;-81
2022/05/02 02:51:04;;;;;;;;;;;7.30;99.90;;;;;;5056694;28;19924;-80
2022/05/02 02:53:31;;;;;;;;;;;7.20;99.90;;;;;;5063484;28;19925;-80
2022/05/02 02:55:58;;;;;;;;;;;7.20;99.90;;;;;;5051494;28;19932;-80
2022/05/02 02:58:25;;;;;;;;;;;7.10;99.90;;;;;;5044305;28;19924;-81
2022/05/02 03:00:53;;;;;;;;;;;7.10;99.90;;;;;;5045355;28;19937;-81
2022/05/02 03:03:21;;;;;;;;;;;7.10;99.90;;;;;;5064710;28;19931;-81
2022/05/02 03:06:02;;;;;;;;;;;7.10;99.90;;;;;;5061751;28;19921;-81
2022/05/02 03:08:30;;;;;;;;;;;7.10;99.90;;;;;;5063931;28;19921;-81
2022/05/02 03:10:57;;;;;;;;;;;7.10;99.90;;;;;;5050090;28;19909;-80
2022/05/02 03:13:24;;;;;;;;;;;7.10;99.90;;;;;;5046031;28;19929;-80
2022/05/02 03:15:51;;;;;;;;;;;7.10;99.90;;;;;;5049435;28;20143;-80
2022/05/02 03:18:18;;;;;;;;;;;7.10;99.90;;;;;;5048644;28;19958;-80
2022/05/02 03:20:46;;;;;;;;;;;7.10;99.90;;;;;;5054483;28;19929;-80
2022/05/02 03:23:13;;;;;;;;;;;7.10;99.90;;;;;;5055536;28;21216;-81
2022/05/02 03:25:40;;;;;;;;;;;7.10;99.90;;;;;;5055233;28;19925;-80
2022/05/02 03:28:07;;;;;;;;;;;7.10;99.90;;;;;;5055913;28;19929;-80
2022/05/02 03:30:34;;;;;;;;;;;7.10;99.90;;;;;;5056632;28;19944;-80
2022/05/02 03:33:02;;;;;;;;;;;7.20;99.90;;;;;;5054724;28;21012;-80
2022/05/02 03:35:29;;;;;;;;;;;7.20;99.90;;;;;;5053909;28;20030;-80
2022/05/02 03:37:57;;;;;;;;;;;7.20;99.90;;;;;;5054812;28;20322;-80
2022/05/02 03:40:24;;;;;;;;;;;7.20;99.90;;;;;;5063096;28;20388;-80
2022/05/02 03:42:51;;;;;;;;;;;7.30;99.90;;;;;;5063416;28;19931;-79
2022/05/02 03:45:18;;;;;;;;;;;7.20;99.90;;;;;;5048648;28;19920;-81
2022/05/02 03:47:45;;;;;;;;;;;7.20;99.90;;;;;;5056114;28;19948;-80
2022/05/02 03:50:12;;;;;;;;;;;7.10;99.90;;;;;;5054861;28;19946;-80
2022/05/02 03:52:38;;;;;;;;;;;7.10;99.90;;;;;;5052768;28;19956;-79
2022/05/02 03:55:07;;;;;;;;;;;7.10;99.90;;;;;;5056486;28;20380;-80
2022/05/02 03:57:34;;;;;;;;;;;7.10;99.90;;;;;;5054859;28;19927;-79
2022/05/02 04:00:01;;;;;;;;;;;7.10;99.90;;;;;;5053260;28;19929;-81
2022/05/02 04:02:39;;;;;;;;;;;7.00;99.90;;;;;;5056730;28;20047;-78
2022/05/02 04:05:06;;;;;;;;;;;7.00;99.90;;;;;;5054963;28;19931;-79
2022/05/02 04:07:33;;;;;;;;;;;7.00;99.90;;;;;;5053820;28;19924;-78
2022/05/02 04:10:00;;;;;;;;;;;6.90;99.90;;;;;;5060085;28;20192;-78
2022/05/02 04:12:34;;;;;;;;;;;6.90;99.90;;;;;;5068216;28;19924;-78
2022/05/02 04:15:01;;;;;;;;;;;6.90;99.90;;;;;;5074464;28;19928;-78
2022/05/02 04:17:28;;;;;;;;;;;6.80;99.90;;;;;;5065648;28;19921;-79
2022/05/02 04:19:55;;;;;;;;;;;6.80;99.90;;;;;;5050765;28;20007;-78
2022/05/02 04:22:22;;;;;;;;;;;6.90;99.90;;;;;;5071998;28;20028;-78
2022/05/02 04:24:49;;;;;;;;;;;6.90;99.90;;;;;;5068879;28;19925;-82
2022/05/02 04:27:16;;;;;;;;;;;6.90;99.90;;;;;;5035868;28;19925;-80
2022/05/02 04:29:45;;;;;;;;;;;7.00;99.90;;;;;;5075369;28;20278;-80
2022/05/02 04:32:12;;;;;;;;;;;7.10;99.90;;;;;;5066192;28;19921;-82
2022/05/02 04:34:39;;;;;;;;;;;7.10;99.90;;;;;;5040554;28;19921;-81
2022/05/02 04:37:07;;;;;;;;;;;7.20;99.90;;;;;;5074445;28;19939;-80
2022/05/02 04:39:34;;;;;;;;;;;7.20;99.90;;;;;;5065866;28;19974;-80
2022/05/02 04:42:01;;;;;;;;;;;7.30;99.90;;;;;;5051586;28;20036;-81
2022/05/02 04:44:31;;;;;;;;;;;7.40;99.90;;;;;;5050233;28;19908;-79
2022/05/02 04:46:59;;;;;;;;;;;9.40;99.90;;;;;;5052349;28;19974;-79
2022/05/02 04:49:26;;;;;;;;;;;7.50;99.90;;;;;;5052045;28;19929;-82
2022/05/02 04:51:53;;;;;;;;;;;7.60;99.90;;;;;;5074469;28;20245;-84
2022/05/02 04:54:20;;;;;;;;;;;7.70;99.90;;;;;;5057610;28;19921;-85
2022/05/02 04:56:50;;;;;;;;;;;7.80;99.90;;;;;;5042916;28;20015;-84
2022/05/02 04:59:19;;;;;;;;;;;7.90;99.90;;;;;;5053822;28;19921;-85
2022/05/02 05:01:46;;;;;;;;;;;7.90;99.90;;;;;;5048752;28;19921;-83
2022/05/02 05:04:15;;;;;;;;;;;8.10;99.90;;;;;;5076276;28;19931;-80
2022/05/02 05:06:43;;;;;;;;;;;8.10;99.90;;;;;;5055869;28;19987;-83
2022/05/02 05:09:11;;;;;;;;;;;8.20;99.90;;;;;;5059895;28;19936;-83
2022/05/02 05:11:43;;;;;;;;;;;8.30;99.90;;;;;;5061240;28;20012;-83
2022/05/02 05:17:20;;;;;;;;;;;8.60;99.90;;;;;;5045462;28;19916;-84
2022/05/02 05:19:55;;;;;;;;;;;8.80;99.90;;;;;;5059808;28;19929;-84
2022/05/02 05:22:26;;;;;;;;;;;8.80;99.90;;;;;;5078843;28;19974;-82
2022/05/02 05:25:06;;;;;;;;;;;9.00;99.90;;;;;;5060104;28;19971;-81
2022/05/02 05:27:41;;;;;;;;;;;9.10;99.90;;;;;;5049477;28;19921;-82
2022/05/02 05:30:09;;;;;;;;;;;9.10;99.90;;;;;;5054715;28;19931;-81
2022/05/02 05:32:41;;;;;;;;;;;9.20;99.90;;;;;;5068161;28;19956;-79
2022/05/02 05:35:10;;;;;;;;;;;9.30;99.90;;;;;;5066973;28;19952;-82
2022/05/02 05:37:51;;;;;;;;;;;9.40;99.90;;;;;;5063954;28;20400;-79
2022/05/02 05:40:21;;;;;;;;;;;9.60;99.90;;;;;;5056698;28;19988;-79
2022/05/02 05:42:55;;;;;;;;;;;9.80;99.90;;;;;;5048820;28;19921;-83
2022/05/02 05:45:30;;;;;;;;;;;10.00;99.90;;;;;;5073977;28;19920;-83
2022/05/02 05:48:03;;;;;;;;;;;10.20;99.90;;;;;;5046740;28;19932;-78
2022/05/02 05:50:33;;;;;;;;;;;10.40;99.90;;;;;;5054340;28;20249;-80
2022/05/02 05:53:05;;;;;;;;;;;10.60;99.90;;;;;;5073657;28;19924;-81
2022/05/02 05:55:45;;;;;;;;;;;10.80;99.90;;;;;;5073185;28;19924;-82
2022/05/02 05:58:16;;;;;;;;;;;11.00;99.90;;;;;;5075759;28;20101;-81
2022/05/02 06:01:03;;;;;;;;;;;11.40;99.90;;;;;;5075031;28;19993;-78
2022/05/02 06:03:34;;;;;;;;;;;11.40;99.90;;;;;;5083729;28;19955;-82
2022/05/02 06:06:04;;;;;;;;;;;11.60;99.90;;;;;;5076822;28;19925;-80
2022/05/02 06:08:32;;;;;;;;;;;11.90;99.90;;;;;;5061957;28;19932;-80
2022/05/02 06:11:00;;;;;;;;;;;12.20;99.90;;;;;;5050365;28;19920;-81
2022/05/02 06:13:28;;;;;;;;;;;12.40;99.90;;;;;;5059401;28;20392;-81
2022/05/02 06:18:43;;;;;;;;;;;14.40;99.90;;;;;;5079953;28;20462;-83
2022/05/02 06:21:14;;;;;;;;;;;15.80;99.90;;;;;;5063987;28;20269;-81
2022/05/02 06:23:50;;;;;;;;;;;17.40;99.90;;;;;;5063271;28;19925;-81
2022/05/02 06:26:35;;;;;;;;;;;17.70;99.90;;;;;;5074253;28;19928;-80
2022/05/02 06:29:04;;;;;;;;;;;17.80;99.90;;;;;;5050266;28;19944;-82
2022/05/02 06:31:34;;;;;;;;;;;17.80;99.90;;;;;;5079474;28;19932;-81
2022/05/02 06:34:03;;;;;;;;;;;17.70;99.90;;;;;;5062796;28;20022;-82
2022/05/02 06:36:56;;;;;;;;;;;17.50;99.90;;;;;;5073522;28;20652;-83
2022/05/02 06:39:30;;;;;;;;;;;17.90;99.90;;;;;;5045901;28;19920;-79
2022/05/02 06:42:08;;;;;;;;;;;18.30;99.90;;;;;;5058415;28;19932;-80
2022/05/02 06:44:43;;;;;;;;;;;18.50;99.90;;;;;;5071966;28;20376;-78
2022/05/02 06:47:15;;;;;;;;;;;18.80;99.90;;;;;;5058010;28;20577;-82
2022/05/02 06:49:43;;;;;;;;;;;19.50;99.90;;;;;;5065333;28;19924;-83
2022/05/02 06:52:12;;;;;;;;;;;19.50;99.90;;;;;;5049121;28;19921;-83
2022/05/02 06:54:57;;;;;;;;;;;19.40;99.90;;;;;;5073759;28;19924;-82
2022/05/02 06:57:31;;;;;;;;;;;19.80;99.90;;;;;;5057843;28;19921;-81
2022/05/02 07:00:02;;;;;;;;;;;20.10;99.90;;;;;;5064193;28;19924;-82
2022/05/02 07:02:46;;;;;;;;;;;19.90;99.90;;;;;;5057776;28;19921;-83
2022/05/02 07:05:23;;;;;;;;;;;20.10;99.90;;;;;;5052373;28;20338;-82
2022/05/02 07:07:58;;;;;;;;;;;20.70;99.90;;;;;;5074281;28;20304;-81
2022/05/02 07:10:27;;;;;;;;;;;21.00;99.90;;;;;;5065908;28;20400;-83
2022/05/02 07:12:59;;;;;;;;;;;21.50;99.90;;;;;;5058874;28;19921;-83
2022/05/02 07:15:32;;;;;;;;;;;21.50;99.90;;;;;;5058314;28;19947;-82
2022/05/02 07:18:04;;;;;;;;;;;21.50;99.90;;;;;;5050926;28;19921;-81
2022/05/02 07:20:34;;;;;;;;;;;22.30;99.90;;;;;;5057984;28;19954;-81
2022/05/02 07:23:12;;;;;;;;;;;22.40;99.90;;;;;;5055046;28;19944;-81
2022/05/02 07:25:40;;;;;;;;;;;22.60;99.90;;;;;;5055159;28;19935;-81
2022/05/02 07:28:18;;;;;;;;;;;22.30;98.90;;;;;;5057238;28;19975;-82
2022/05/02 07:30:46;;;;;;;;;;;22.60;98.90;;;;;;5050083;28;19927;-81
2022/05/02 07:33:13;;;;;;;;;;;22.90;98.00;;;;;;5079146;28;19931;-81
2022/05/02 07:35:41;;;;;;;;;;;23.20;99.20;;;;;;5056993;28;20269;-81
2022/05/02 07:38:10;;;;;;;;;;;23.80;98.20;;;;;;5068917;28;19928;-82
2022/05/02 07:41:22;;;;;;;;;;;24.50;97.60;;;;;;5048390;28;20414;-82
2022/05/02 07:43:30;;;;;;;;;;;24.90;95.80;;;;;;5053830;28;19940;-81
2022/05/02 07:46:00;;;;;;;;;;;25.40;95.40;;;;;;5072232;28;20335;-80
2022/05/02 07:48:35;;;;;;;;;;;25.50;93.70;;;;;;5052293;28;19921;-81
2022/05/02 07:51:03;;;;;;;;;;;25.00;94.00;;;;;;5056417;28;19954;-81
2022/05/02 07:53:33;;;;;;;;;;;24.90;91.60;;;;;;5056982;28;19982;-81
2022/05/02 07:56:01;;;;;;;;;;;24.10;91.70;;;;;;5067500;28;19921;-82
2022/05/02 07:58:30;;;;;;;;;;;24.00;91.00;;;;;;5050169;28;19921;-79
2022/05/02 08:00:57;;;;;;;;;;;23.50;91.30;;;;;;5053625;28;20012;-81
2022/05/02 08:03:25;;;;;;;;;;;23.20;91.60;;;;;;5075213;28;19920;-81
2022/05/02 08:05:55;;;;;;;;;;;23.20;91.70;;;;;;5083677;28;20031;-81
2022/05/02 08:08:26;;;;;;;;;;;23.20;91.70;;;;;;5068696;28;20382;-81
2022/05/02 08:11:02;;;;;;;;;;;23.80;92.00;;;;;;5072710;28;20402;-82
2022/05/02 08:13:37;;;;;;;;;;;24.40;91.50;;;;;;5056256;28;19956;-81
2022/05/02 08:16:05;;;;;;;;;;;24.70;90.70;;;;;;5063442;28;19991;-81
2022/05/02 08:18:46;;;;;;;;;;;25.10;90.50;;;;;;5044369;28;19936;-82
2022/05/02 08:21:15;;;;;;;;;;;25.80;90.30;;;;;;5053408;28;19925;-82
2022/05/02 08:29:34;;;;;;;;;;;25.40;87.60;;;;;;5056906;28;19995;-82
2022/05/02 08:32:06;;;;;;;;;;;25.50;84.90;;;;;;5058942;28;19920;-82
2022/05/02 08:34:37;;;;;;;;;;;25.90;87.10;;;;;;5046183;28;19928;-82
2022/05/02 08:37:11;;;;;;;;;;;26.10;85.60;;;;;;5044249;28;19957;-82
2022/05/02 08:39:42;;;;;;;;;;;25.80;83.90;;;;;;5053124;28;19925;-81
2022/05/02 08:42:26;;;;;;;;;;;25.10;82.90;;;;;;5073662;28;19940;-82
2022/05/02 08:45:08;;;;;;;;;;;24.40;82.80;;;;;;5054092;28;19924;-82
2022/05/02 08:47:53;;;;;;;;;;;23.80;83.90;;;;;;5061124;28;19920;-82
2022/05/02 08:50:23;;;;;;;;;;;23.80;84.80;;;;;;5072580;28;19924;-82
2022/05/02 08:53:08;;;;;;;;;;;23.80;84.30;;;;;;5082170;28;20291;-82
2022/05/02 08:56:01;;;;;;;;;;;23.90;85.40;;;;;;5060012;28;19963;-82
2022/05/02 08:58:46;;;;;;;;;;;24.10;86.40;;;;;;5059353;28;19924;-81
2022/05/02 09:01:28;;;;;;;;;;;23.90;85.30;;;;;;5037762;28;19925;-81
2022/05/02 09:04:15;;;;;;;;;;;23.80;84.10;;;;;;5067306;28;20380;-81
2022/05/02 09:06:56;;;;;;;;;;;23.70;83.90;;;;;;5059248;28;20162;-81
2022/05/02 09:09:29;;;;;;;;;;;23.50;84.80;;;;;;5058202;28;19925;-81
2022/05/02 09:12:11;;;;;;;;;;;23.30;84.40;;;;;;5054119;28;19932;-81
2022/05/02 09:14:54;;;;;;;;;;;23.50;85.90;;;;;;5071187;28;19986;-80
2022/05/02 09:17:39;;;;;;;;;;;23.60;85.10;;;;;;5064932;28;19921;-80
2022/05/02 09:20:22;;;;;;;;;;;23.50;83.90;;;;;;5067371;28;19984;-81
2022/05/02 09:22:59;;;;;;;;;;;23.60;86.10;;;;;;5083189;28;19956;-80
2022/05/02 09:25:34;;;;;;;;;;;23.70;84.80;;;;;;5066421;28;19921;-80
2022/05/02 09:28:18;;;;;;;;;;;23.80;85.70;;;;;;5050175;28;19962;-81
2022/05/02 09:30:58;;;;;;;;;;;23.90;84.20;;;;;;5059275;28;19924;-81
2022/05/02 09:33:34;;;;;;;;;;;23.70;84.60;;;;;;5063760;28;20304;-81
2022/05/02 09:36:05;;;;;;;;;;;23.20;81.50;;;;;;5078794;28;19921;-82
2022/05/02 09:38:47;;;;;;;;;;;22.60;83.20;;;;;;5060333;28;19925;-81
2022/05/02 09:41:21;;;;;;;;;;;22.20;84.20;;;;;;5056345;28;20019;-82
2022/05/02 09:49:56;;;;;;;;;;;21.40;82.80;;;;;;5004929;28;19933;-81
2022/05/02 09:52:29;;;;;;;;;;;20.80;82.90;;;;;;5086151;28;20585;-81
2022/05/02 09:58:21;;;;;;;;;;;19.70;85.50;;;;;;5063928;28;19913;-81
2022/05/02 10:01:07;;;;;;;;;;;19.30;86.80;;;;;;5059659;28;19925;-81
2022/05/02 10:03:35;;;;;;;;;;;19.10;87.60;;;;;;5066373;28;19932;-81
2022/05/02 10:06:05;;;;;;;;;;;19.00;88.30;;;;;;5083561;28;19932;-81
2022/05/02 10:08:39;;;;;;;;;;;18.90;88.60;;;;;;5059320;28;19920;-80
2022/05/02 10:11:08;;;;;;;;;;;18.90;88.90;;;;;;5090306;28;20328;-81
2022/05/02 10:13:44;;;;;;;;;;;18.90;89.00;;;;;;5053862;28;20088;-81
2022/05/02 10:16:18;;;;;;;;;;;19.20;90.00;;;;;;5087829;28;19920;-80
2022/05/02 10:18:48;;;;;;;;;;;19.30;88.50;;;;;;5061632;28;19929;-81
2022/05/02 10:21:29;;;;;;;;;;;19.30;89.40;;;;;;5077321;28;19971;-81
2022/05/02 10:24:10;;;;;;;;;;;19.40;89.60;;;;;;5075708;28;19932;-81
2022/05/02 10:26:41;;;;;;;;;;;19.60;89.10;;;;;;5064682;28;20463;-81
2022/05/02 10:29:25;;;;;;;;;;;19.90;89.20;;;;;;5082609;28;19924;-81
2022/05/02 10:32:02;;;;;;;;;;;19.60;88.80;;;;;;5061689;28;19920;-81
2022/05/02 10:34:32;;;;;;;;;;;19.50;88.80;;;;;;5063529;28;19920;-80
2022/05/02 10:37:01;;;;;;;;;;;19.40;89.20;;;;;;5060754;28;19932;-81
2022/05/02 10:39:32;;;;;;;;;;;19.30;89.20;;;;;;5076129;28;19962;-81
2022/05/02 10:42:00;;;;;;;;;;;19.50;90.10;;;;;;5056884;28;19929;-81
2022/05/02 10:44:29;;;;;;;;;;;19.90;89.60;;;;;;5060856;28;19987;-82
2022/05/02 10:47:03;;;;;;;;;;;20.00;89.90;;;;;;5058171;28;19921;-81
2022/05/02 10:49:38;;;;;;;;;;;20.20;89.80;;;;;;5072829;28;19925;-81
2022/05/02 10:52:08;;;;;;;;;;;20.30;89.00;;;;;;5056261;28;20337;-81
2022/05/02 10:54:43;;;;;;;;;;;20.30;88.40;;;;;;5062954;28;19924;-81
2022/05/02 10:57:16;;;;;;;;;;;20.40;87.00;;;;;;5063683;28;19946;-81
2022/05/02 10:59:49;;;;;;;;;;;20.40;86.30;;;;;;5064913;28;19985;-81
2022/05/02 11:02:35;;;;;;;;;;;20.40;86.70;;;;;;5068641;28;20017;-80
2022/05/02 11:05:07;;;;;;;;;;;20.50;87.90;;;;;;5058364;28;20454;-81
2022/05/02 11:07:37;;;;;;;;;;;20.60;88.50;;;;;;5068720;28;19924;-81
2022/05/02 11:10:07;;;;;;;;;;;21.00;88.80;;;;;;5072814;28;19936;-81
2022/05/02 11:12:37;;;;;;;;;;;21.20;87.20;;;;;;5067842;28;19920;-81
2022/05/02 11:15:07;;;;;;;;;;;21.30;88.00;;;;;;5263037;22;20358;-77
2022/05/02 11:17:38;;;;;;;;;;;21.60;87.90;;;;;;5061080;28;20000;-77
2022/05/02 11:22:57;;;;;;;;;;;22.00;88.60;;;;;;5048034;28;19924;-73
2022/05/02 11:25:27;;;;;;;;;;;22.30;87.60;;;;;;5042422;28;20011;-74
2022/05/02 11:27:59;;;;;;;;;;;22.30;86.90;;;;;;5045520;28;19920;-74
2022/05/02 11:30:28;;;;;;;;;;;22.30;86.70;;;;;;5041343;28;19928;-73
2022/05/02 11:33:13;;;;;;;;;;;22.40;86.70;;;;;;5044347;28;20000;-73
2022/05/02 11:35:46;;;;;;;;;;;22.40;86.30;;;;;;5047723;28;20365;-73
2022/05/02 11:38:22;;;;;;;;;;;22.70;86.40;;;;;;5051275;28;20294;-72
2022/05/02 11:40:51;;;;;;;;;;;22.80;86.30;;;;;;5047423;28;19921;-73
2022/05/02 11:43:20;;;;;;;;;;;23.10;86.00;;;;;;5043672;28;19925;-73
2022/05/02 11:45:51;;;;;;;;;;;23.00;84.60;;;;;;5043293;28;20364;-73
2022/05/02 11:48:45;;;;;;;;;;;22.70;84.50;;;;;;5037932;28;19925;-73
2022/05/02 11:51:18;;;;;;;;;;;22.60;84.40;;;;;;4988152;28;19924;-74
2022/05/02 11:53:48;;;;;;;;;;;22.50;85.00;;;;;;5044326;28;19944;-73
2022/05/02 11:56:17;;;;;;;;;;;22.30;83.00;;;;;;5042051;28;20001;-73
2022/05/02 11:58:45;;;;;;;;;;;22.10;83.30;;;;;;5044249;28;19928;-74
2022/05/02 12:01:19;;;;;;;;;;;22.20;83.60;;;;;;5036437;28;20594;-74
2022/05/02 12:03:52;;;;;;;;;;;22.20;83.10;;;;;;5041555;28;19924;-73
2022/05/02 12:06:24;;;;;;;;;;;22.10;82.20;;;;;;5034834;28;19932;-77
2022/05/02 12:08:53;;;;;;;;;;;22.20;82.90;;;;;;5045630;28;19921;-78
2022/05/02 12:11:20;;;;;;;;;;;22.50;83.30;;;;;;5042076;28;19931;-76
2022/05/02 12:13:47;;;;;;;;;;;23.00;83.00;;;;;;5042025;28;19924;-79
2022/05/02 12:16:16;;;;;;;;;;;23.20;81.90;;;;;;5044977;28;19924;-76
2022/05/02 12:18:44;;;;;;;;;;;23.30;81.90;;;;;;5050126;28;19988;-76
2022/05/02 12:21:14;;;;;;;;;;;23.40;81.60;;;;;;5049301;28;19928;-76
2022/05/02 12:23:41;;;;;;;;;;;23.50;81.50;;;;;;5058482;28;20012;-76
2022/05/02 12:26:14;;;;;;;;;;;23.60;82.20;;;;;;5049317;28;19988;-78
2022/05/02 12:28:42;;;;;;;;;;;23.80;80.90;;;;;;5059626;28;19935;-76
2022/05/02 12:31:10;;;;;;;;;;;23.60;80.10;;;;;;5063408;28;20537;-76
2022/05/02 12:33:40;;;;;;;;;;;23.20;81.10;;;;;;5048882;28;19931;-76
2022/05/02 12:36:11;;;;;;;;;;;23.10;81.30;;;;;;5043105;28;20273;-76
2022/05/02 12:38:39;;;;;;;;;;;23.10;80.70;;;;;;5043983;28;19928;-76
2022/05/02 12:41:08;;;;;;;;;;;23.30;81.30;;;;;;5045329;28;19928;-77
2022/05/02 12:43:43;;;;;;;;;;;23.50;81.50;;;;;;5050062;28;20420;-76
2022/05/02 12:46:10;;;;;;;;;;;23.60;81.10;;;;;;5045112;28;19925;-78
2022/05/02 12:48:40;;;;;;;;;;;23.70;80.70;;;;;;5050384;28;20446;-76
2022/05/02 12:51:07;;;;;;;;;;;23.60;80.30;;;;;;5051428;28;19924;-76
2022/05/02 12:56:19;;;;;;;;;;;24.10;80.20;;;;;;5044810;28;19925;-77
2022/05/02 13:01:31;;;;;;;;;;;24.20;77.50;;;;;;5040140;28;19921;-78
2022/05/02 13:04:00;;;;;;;;;;;23.80;77.50;;;;;;5042577;28;19956;-77
2022/05/02 13:06:27;;;;;;;;;;;23.70;78.20;;;;;;5050365;28;19931;-76
2022/05/02 13:09:08;;;;;;;;;;;23.80;78.10;;;;;;5056779;28;19921;-76
2022/05/02 13:11:36;;;;;;;;;;;24.00;78.00;;;;;;5054055;28;19920;-76
2022/05/02 13:14:03;;;;;;;;;;;24.20;77.60;;;;;;5053788;28;20480;-77
2022/05/02 13:16:31;;;;;;;;;;;24.40;77.90;;;;;;5036759;28;19967;-77
2022/05/02 13:19:00;;;;;;;;;;;24.70;78.00;;;;;;5045856;28;19931;-77
2022/05/02 13:21:28;;;;;;;;;;;25.00;77.70;;;;;;5057996;28;20142;-78
2022/05/02 13:23:57;;;;;;;;;;;25.20;76.70;;;;;;5044036;28;19925;-77
2022/05/02 13:26:34;;;;;;;;;;;25.50;77.40;;;;;;5057733;28;19925;-76
2022/05/02 13:29:03;;;;;;;;;;;25.70;75.00;;;;;;5046701;28;19970;-76
2022/05/02 13:31:33;;;;;;;;;;;25.70;75.00;;;;;;5042865;28;19921;-76
2022/05/02 13:34:03;;;;;;;;;;;25.60;75.10;;;;;;5045072;28;20012;-77
2022/05/02 13:36:40;;;;;;;;;;;25.50;75.10;;;;;;5048394;28;19983;-78
2022/05/02 13:39:08;;;;;;;;;;;25.00;73.50;;;;;;5047160;28;19929;-76
2022/05/02 13:41:38;;;;;;;;;;;24.70;74.50;;;;;;5047406;28;20305;-76
2022/05/02 13:44:15;;;;;;;;;;;24.50;74.40;;;;;;5046725;28;20015;-76
2022/05/02 13:46:48;;;;;;;;;;;24.30;74.40;;;;;;5048148;28;19933;-77
2022/05/02 13:49:19;;;;;;;;;;;24.00;74.60;;;;;;5041715;28;19925;-77
2022/05/02 13:51:54;;;;;;;;;;;23.70;74.80;;;;;;5039165;28;19938;-78
2022/05/02 13:54:25;;;;;;;;;;;23.70;75.20;;;;;;5044768;28;19939;-76
2022/05/02 13:56:56;;;;;;;;;;;23.90;75.40;;;;;;5049161;28;19928;-77
2022/05/02 13:59:34;;;;;;;;;;;24.10;75.10;;;;;;5045377;28;19983;-77
2022/05/02 14:02:03;;;;;;;;;;;24.10;75.50;;;;;;5047578;28;20012;-77
2022/05/02 14:04:39;;;;;;;;;;;24.10;75.40;;;;;;5045392;28;19978;-76
2022/05/02 14:07:11;;;;;;;;;;;24.20;75.00;;;;;;5042181;28;20019;-77
2022/05/02 14:09:44;;;;;;;;;;;24.20;75.50;;;;;;5040889;28;21208;-77
2022/05/02 14:12:28;;;;;;;;;;;24.40;75.50;;;;;;5043738;28;19960;-77
2022/05/02 14:14:56;;;;;;;;;;;24.70;76.00;;;;;;5045860;28;19935;-77
2022/05/02 14:17:30;;;;;;;;;;;25.00;75.10;;;;;;5046286;28;20274;-75
2022/05/02 14:20:09;;;;;;;;;;;25.30;74.10;;;;;;5052997;28;19932;-77
2022/05/02 14:22:37;;;;;;;;;;;25.50;73.90;;;;;;5044758;28;19925;-77
2022/05/02 14:25:05;;;;;;;;;;;25.40;73.10;;;;;;5046510;28;20041;-76
2022/05/02 14:27:33;;;;;;;;;;;25.10;73.30;;;;;;5047891;28;20004;-76
2022/05/02 14:30:02;;;;;;;;;;;24.70;72.40;;;;;;5050019;28;20295;-77
2022/05/02 14:32:39;;;;;;;;;;;24.50;72.70;;;;;;5048959;28;20002;-76
2022/05/02 14:35:07;;;;;;;;;;;24.40;74.20;;;;;;5044708;28;20436;-76
2022/05/02 14:37:35;;;;;;;;;;;24.50;73.60;;;;;;5042994;28;19952;-76
2022/05/02 14:40:03;;;;;;;;;;;24.40;73.50;;;;;;5042100;28;19971;-76
2022/05/02 14:42:30;;;;;;;;;;;24.10;72.90;;;;;;5045655;28;19932;-76
2022/05/02 14:44:58;;;;;;;;;;;23.70;73.00;;;;;;5051070;28;19951;-77
2022/05/02 14:47:25;;;;;;;;;;;24.20;74.30;;;;;;5049494;28;19963;-77
2022/05/02 14:49:55;;;;;;;;;;;23.50;73.90;;;;;;5041165;28;20001;-79
2022/05/02 14:52:24;;;;;;;;;;;23.30;73.80;;;;;;5052695;28;20379;-76
2022/05/02 14:54:52;;;;;;;;;;;23.30;74.00;;;;;;5040100;28;19954;-76
2022/05/02 14:57:22;;;;;;;;;;;23.30;73.80;;;;;;5037027;28;20338;-76
2022/05/02 14:59:49;;;;;;;;;;;23.30;74.20;;;;;;5046362;28;19986;-78
2022/05/02 15:02:16;;;;;;;;;;;23.30;74.80;;;;;;5048671;28;19924;-77
2022/05/02 15:04:43;;;;;;;;;;;23.40;74.60;;;;;;5049780;28;19945;-77
2022/05/02 15:07:14;;;;;;;;;;;23.70;74.60;;;;;;5045847;28;19982;-76
2022/05/02 15:12:38;;;;;;;;;;;23.70;74.10;;;;;;5042316;28;19932;-77
2022/05/02 15:15:13;;;;;;;;;;;23.70;74.80;;;;;;5036711;28;19924;-76
2022/05/02 15:17:42;;;;;;;;;;;23.80;74.40;;;;;;5047387;28;19935;-76
2022/05/02 15:20:14;;;;;;;;;;;23.80;74.40;;;;;;5046657;28;19990;-76